Terminal Aerodrome Forecast
Issued by NWS

Home | Current Version | Previous Version | Text Only | Print | Product List | Glossary On
Versions: 1 2 3 4 5 6 7 8 9 10 11 12
939
FTUS42 KTAE 251720
TAFVLD
TAF
KVLD 251720Z 2518/2618 07004KT P6SM VCTS BKN040CB
     FM252200 10003KT P6SM SCT100
     FM261000 00000KT 2SM BR SCT025
     FM261300 06005KT P6SM BKN030=

USA.gov is the U.S. government's official web portal to all federal, state and local government web resources and services.